sensor_id;sensor_type;location;lat;lon;timestamp;temperature;humidity
64396;DHT22;50717;53.360;6.290;2023-10-08T00:00:24;13.10;99.90
64396;DHT22;50717;53.360;6.290;2023-10-08T00:03:08;13.30;99.90
64396;DHT22;50717;53.360;6.290;2023-10-08T00:05:40;13.30;99.90
64396;DHT22;50717;53.360;6.290;2023-10-08T00:08:06;12.90;99.90
64396;DHT22;50717;53.360;6.290;2023-10-08T00:10:36;13.50;99.90
64396;DHT22;50717;53.360;6.290;2023-10-08T00:13:04;13.70;99.90
64396;DHT22;50717;53.360;6.290;2023-10-08T00:15:32;13.70;99.90
64396;DHT22;50717;53.360;6.290;2023-10-08T00:17:57;13.10;99.90
64396;DHT22;50717;53.360;6.290;2023-10-08T00:20:26;13.80;99.90
64396;DHT22;50717;53.360;6.290;2023-10-08T00:23:03;13.80;99.90
64396;DHT22;50717;53.360;6.290;2023-10-08T00:25:33;13.30;99.90
64396;DHT22;50717;53.360;6.290;2023-10-08T00:27:59;13.90;99.90
64396;DHT22;50717;53.360;6.290;2023-10-08T00:30:27;13.40;99.90
64396;DHT22;50717;53.360;6.290;2023-10-08T00:32:53;13.50;99.90
64396;DHT22;50717;53.360;6.290;2023-10-08T00:35:18;13.40;99.90
64396;DHT22;50717;53.360;6.290;2023-10-08T00:37:46;13.50;99.90
64396;DHT22;50717;53.360;6.290;2023-10-08T00:40:14;13.10;99.90
64396;DHT22;50717;53.360;6.290;2023-10-08T00:42:44;13.30;99.90
64396;DHT22;50717;53.360;6.290;2023-10-08T00:45:13;13.90;99.90
64396;DHT22;50717;53.360;6.290;2023-10-08T00:47:45;13.40;99.90
64396;DHT22;50717;53.360;6.290;2023-10-08T00:50:12;13.40;99.90
64396;DHT22;50717;53.360;6.290;2023-10-08T00:52:56;13.40;99.90
64396;DHT22;50717;53.360;6.290;2023-10-08T00:55:26;13.70;99.90
64396;DHT22;50717;53.360;6.290;2023-10-08T00:57:58;13.70;99.90
64396;DHT22;50717;53.360;6.290;2023-10-08T01:00:33;13.60;99.90
64396;DHT22;50717;53.360;6.290;2023-10-08T01:03:05;13.60;99.90
64396;DHT22;50717;53.360;6.290;2023-10-08T01:05:41;13.20;99.90
64396;DHT22;50717;53.360;6.290;2023-10-08T01:08:14;13.90;99.90
64396;DHT22;50717;53.360;6.290;2023-10-08T01:10:47;13.50;99.90
64396;DHT22;50717;53.360;6.290;2023-10-08T01:13:14;13.80;99.90
64396;DHT22;50717;53.360;6.290;2023-10-08T01:15:46;13.50;99.90
64396;DHT22;50717;53.360;6.290;2023-10-08T01:18:17;13.70;99.90
64396;DHT22;50717;53.360;6.290;2023-10-08T01:20:56;13.50;99.90
64396;DHT22;50717;53.360;6.290;2023-10-08T01:23:29;13.50;99.90
64396;DHT22;50717;53.360;6.290;2023-10-08T01:25:57;13.40;99.90
64396;DHT22;50717;53.360;6.290;2023-10-08T01:28:36;13.30;99.90
64396;DHT22;50717;53.360;6.290;2023-10-08T01:31:01;13.60;99.90
64396;DHT22;50717;53.360;6.290;2023-10-08T01:33:30;13.30;99.90
64396;DHT22;50717;53.360;6.290;2023-10-08T01:35:57;13.10;99.90
64396;DHT22;50717;53.360;6.290;2023-10-08T01:38:29;13.10;99.90
64396;DHT22;50717;53.360;6.290;2023-10-08T01:40:54;13.50;99.90
64396;DHT22;50717;53.360;6.290;2023-10-08T01:43:22;13.60;99.90
64396;DHT22;50717;53.360;6.290;2023-10-08T01:45:47;13.50;99.90
64396;DHT22;50717;53.360;6.290;2023-10-08T01:48:18;13.40;99.90
64396;DHT22;50717;53.360;6.290;2023-10-08T01:50:57;13.40;99.90
64396;DHT22;50717;53.360;6.290;2023-10-08T01:53:29;13.50;99.90
64396;DHT22;50717;53.360;6.290;2023-10-08T01:55:56;14.80;99.90
64396;DHT22;50717;53.360;6.290;2023-10-08T01:58:22;13.70;99.90
64396;DHT22;50717;53.360;6.290;2023-10-08T02:00:50;13.60;99.90
64396;DHT22;50717;53.360;6.290;2023-10-08T02:03:18;13.60;99.90
64396;DHT22;50717;53.360;6.290;2023-10-08T02:05:47;13.20;99.90
64396;DHT22;50717;53.360;6.290;2023-10-08T02:08:14;13.80;99.90
64396;DHT22;50717;53.360;6.290;2023-10-08T02:10:42;13.50;99.90
64396;DHT22;50717;53.360;6.290;2023-10-08T02:13:09;13.30;99.90
64396;DHT22;50717;53.360;6.290;2023-10-08T02:15:43;13.30;99.90
64396;DHT22;50717;53.360;6.290;2023-10-08T02:18:09;13.30;99.90
64396;DHT22;50717;53.360;6.290;2023-10-08T02:20:34;13.20;99.90
64396;DHT22;50717;53.360;6.290;2023-10-08T02:23:00;13.50;99.90
64396;DHT22;50717;53.360;6.290;2023-10-08T02:25:26;13.40;99.90
64396;DHT22;50717;53.360;6.290;2023-10-08T02:27:52;13.40;99.90
64396;DHT22;50717;53.360;6.290;2023-10-08T02:30:18;13.40;99.90
64396;DHT22;50717;53.360;6.290;2023-10-08T02:32:44;13.80;99.90
64396;DHT22;50717;53.360;6.290;2023-10-08T02:35:12;13.30;99.90
64396;DHT22;50717;53.360;6.290;2023-10-08T02:37:39;13.40;99.90
64396;DHT22;50717;53.360;6.290;2023-10-08T02:40:08;13.30;99.90
64396;DHT22;50717;53.360;6.290;2023-10-08T02:42:55;13.10;99.90
64396;DHT22;50717;53.360;6.290;2023-10-08T02:45:27;13.50;99.90
64396;DHT22;50717;53.360;6.290;2023-10-08T02:47:56;13.50;99.90
64396;DHT22;50717;53.360;6.290;2023-10-08T02:50:23;13.50;99.90
64396;DHT22;50717;53.360;6.290;2023-10-08T02:52:49;13.60;99.90
64396;DHT22;50717;53.360;6.290;2023-10-08T02:55:16;13.50;99.90
64396;DHT22;50717;53.360;6.290;2023-10-08T02:58:02;13.10;99.90
64396;DHT22;50717;53.360;6.290;2023-10-08T03:00:29;13.40;99.90
64396;DHT22;50717;53.360;6.290;2023-10-08T03:02:58;13.50;99.90
64396;DHT22;50717;53.360;6.290;2023-10-08T03:05:28;13.40;99.90
64396;DHT22;50717;53.360;6.290;2023-10-08T03:08:04;13.50;99.90
64396;DHT22;50717;53.360;6.290;2023-10-08T03:10:37;13.40;99.90
64396;DHT22;50717;53.360;6.290;2023-10-08T03:13:04;13.40;99.90
64396;DHT22;50717;53.360;6.290;2023-10-08T03:15:31;13.60;99.90
64396;DHT22;50717;53.360;6.290;2023-10-08T03:18:04;13.50;99.90
64396;DHT22;50717;53.360;6.290;2023-10-08T03:20:40;13.70;99.90
64396;DHT22;50717;53.360;6.290;2023-10-08T03:23:13;13.50;99.90
64396;DHT22;50717;53.360;6.290;2023-10-08T03:25:56;13.30;99.90
64396;DHT22;50717;53.360;6.290;2023-10-08T03:28:29;13.40;99.90
64396;DHT22;50717;53.360;6.290;2023-10-08T03:30:55;13.50;99.90
64396;DHT22;50717;53.360;6.290;2023-10-08T03:33:35;13.50;99.90
64396;DHT22;50717;53.360;6.290;2023-10-08T03:36:07;13.60;99.90
64396;DHT22;50717;53.360;6.290;2023-10-08T03:38:59;13.50;99.90
64396;DHT22;50717;53.360;6.290;2023-10-08T03:41:35;13.40;99.90
64396;DHT22;50717;53.360;6.290;2023-10-08T03:44:05;13.10;99.90
64396;DHT22;50717;53.360;6.290;2023-10-08T03:46:33;13.20;99.90
64396;DHT22;50717;53.360;6.290;2023-10-08T03:49:14;13.60;99.90
64396;DHT22;50717;53.360;6.290;2023-10-08T03:51:49;13.50;99.90
64396;DHT22;50717;53.360;6.290;2023-10-08T03:54:19;13.40;99.90
64396;DHT22;50717;53.360;6.290;2023-10-08T03:56:49;13.20;99.90
64396;DHT22;50717;53.360;6.290;2023-10-08T03:59:16;13.40;99.90
64396;DHT22;50717;53.360;6.290;2023-10-08T04:02:01;13.10;99.90
64396;DHT22;50717;53.360;6.290;2023-10-08T04:04:47;13.40;99.90
64396;DHT22;50717;53.360;6.290;2023-10-08T04:07:24;13.40;99.90
64396;DHT22;50717;53.360;6.290;2023-10-08T04:10:12;13.20;99.90
64396;DHT22;50717;53.360;6.290;2023-10-08T04:12:38;13.70;99.90
64396;DHT22;50717;53.360;6.290;2023-10-08T04:15:13;13.50;99.90
64396;DHT22;50717;53.360;6.290;2023-10-08T04:17:41;13.30;99.90
64396;DHT22;50717;53.360;6.290;2023-10-08T04:20:11;13.30;99.90
64396;DHT22;50717;53.360;6.290;2023-10-08T04:22:55;13.40;99.90
64396;DHT22;50717;53.360;6.290;2023-10-08T04:25:21;13.60;99.90
64396;DHT22;50717;53.360;6.290;2023-10-08T04:27:47;13.70;99.90
64396;DHT22;50717;53.360;6.290;2023-10-08T04:30:15;13.40;99.90
64396;DHT22;50717;53.360;6.290;2023-10-08T04:32:41;13.30;99.90
64396;DHT22;50717;53.360;6.290;2023-10-08T04:35:07;13.80;99.90
64396;DHT22;50717;53.360;6.290;2023-10-08T04:37:40;13.70;99.90
64396;DHT22;50717;53.360;6.290;2023-10-08T04:40:07;13.20;99.90
64396;DHT22;50717;53.360;6.290;2023-10-08T04:42:41;13.70;99.90
64396;DHT22;50717;53.360;6.290;2023-10-08T04:45:10;13.20;99.90
64396;DHT22;50717;53.360;6.290;2023-10-08T04:47:40;12.90;99.90
64396;DHT22;50717;53.360;6.290;2023-10-08T04:50:08;13.30;99.90
64396;DHT22;50717;53.360;6.290;2023-10-08T04:52:40;13.40;99.90
64396;DHT22;50717;53.360;6.290;2023-10-08T04:55:12;13.50;99.90
64396;DHT22;50717;53.360;6.290;2023-10-08T04:57:46;13.20;99.90
64396;DHT22;50717;53.360;6.290;2023-10-08T05:00:14;13.40;99.90
64396;DHT22;50717;53.360;6.290;2023-10-08T05:02:41;13.10;99.90
64396;DHT22;50717;53.360;6.290;2023-10-08T05:05:16;12.90;99.90
64396;DHT22;50717;53.360;6.290;2023-10-08T05:07:42;13.20;99.90
64396;DHT22;50717;53.360;6.290;2023-10-08T05:10:11;13.30;99.90
64396;DHT22;50717;53.360;6.290;2023-10-08T05:12:56;13.10;99.90
64396;DHT22;50717;53.360;6.290;2023-10-08T05:15:32;13.30;99.90
64396;DHT22;50717;53.360;6.290;2023-10-08T05:18:28;12.80;99.90
64396;DHT22;50717;53.360;6.290;2023-10-08T05:21:14;12.90;99.90
64396;DHT22;50717;53.360;6.290;2023-10-08T05:23:53;13.30;99.90
64396;DHT22;50717;53.360;6.290;2023-10-08T05:26:43;13.10;99.90
64396;DHT22;50717;53.360;6.290;2023-10-08T05:29:15;13.00;99.90
64396;DHT22;50717;53.360;6.290;2023-10-08T05:32:01;12.90;99.90
64396;DHT22;50717;53.360;6.290;2023-10-08T05:34:45;12.90;99.90
64396;DHT22;50717;53.360;6.290;2023-10-08T05:37:36;13.10;99.90
64396;DHT22;50717;53.360;6.290;2023-10-08T05:40:08;12.90;99.90
64396;DHT22;50717;53.360;6.290;2023-10-08T05:42:46;13.00;99.90
64396;DHT22;50717;53.360;6.290;2023-10-08T05:45:13;13.30;99.90
64396;DHT22;50717;53.360;6.290;2023-10-08T05:47:38;13.10;99.90
64396;DHT22;50717;53.360;6.290;2023-10-08T05:50:07;13.00;99.90
64396;DHT22;50717;53.360;6.290;2023-10-08T05:52:48;12.90;99.90
64396;DHT22;50717;53.360;6.290;2023-10-08T05:55:28;12.80;99.90
64396;DHT22;50717;53.360;6.290;2023-10-08T05:58:01;13.30;99.90
64396;DHT22;50717;53.360;6.290;2023-10-08T06:00:41;13.00;99.90
64396;DHT22;50717;53.360;6.290;2023-10-08T06:03:19;12.80;99.90
64396;DHT22;50717;53.360;6.290;2023-10-08T06:06:02;13.10;99.90
64396;DHT22;50717;53.360;6.290;2023-10-08T06:08:48;13.00;99.90
64396;DHT22;50717;53.360;6.290;2023-10-08T06:11:21;13.10;99.90
64396;DHT22;50717;53.360;6.290;2023-10-08T06:14:02;13.20;99.90
64396;DHT22;50717;53.360;6.290;2023-10-08T06:16:36;13.40;99.90
64396;DHT22;50717;53.360;6.290;2023-10-08T06:19:10;13.20;99.90
64396;DHT22;50717;53.360;6.290;2023-10-08T06:21:41;12.90;99.90
64396;DHT22;50717;53.360;6.290;2023-10-08T06:24:08;13.10;99.90
64396;DHT22;50717;53.360;6.290;2023-10-08T06:26:42;13.10;99.90
64396;DHT22;50717;53.360;6.290;2023-10-08T06:29:09;13.00;99.90
64396;DHT22;50717;53.360;6.290;2023-10-08T06:31:45;13.60;99.90
64396;DHT22;50717;53.360;6.290;2023-10-08T06:34:17;13.30;99.90
64396;DHT22;50717;53.360;6.290;2023-10-08T06:36:47;13.30;99.90
64396;DHT22;50717;53.360;6.290;2023-10-08T06:39:13;13.50;99.90
64396;DHT22;50717;53.360;6.290;2023-10-08T06:41:44;13.40;99.90
64396;DHT22;50717;53.360;6.290;2023-10-08T06:44:12;13.40;99.90
64396;DHT22;50717;53.360;6.290;2023-10-08T06:46:41;13.40;99.90
64396;DHT22;50717;53.360;6.290;2023-10-08T06:49:07;13.60;99.90
64396;DHT22;50717;53.360;6.290;2023-10-08T06:51:40;13.50;99.90
64396;DHT22;50717;53.360;6.290;2023-10-08T06:54:09;13.70;99.90
64396;DHT22;50717;53.360;6.290;2023-10-08T06:56:39;13.50;99.90
64396;DHT22;50717;53.360;6.290;2023-10-08T06:59:08;13.70;99.90
64396;DHT22;50717;53.360;6.290;2023-10-08T07:01:35;13.90;99.90
64396;DHT22;50717;53.360;6.290;2023-10-08T07:04:11;13.50;99.90
64396;DHT22;50717;53.360;6.290;2023-10-08T07:06:43;13.40;99.90
64396;DHT22;50717;53.360;6.290;2023-10-08T07:09:14;13.40;99.90
64396;DHT22;50717;53.360;6.290;2023-10-08T07:11:57;13.70;99.90
64396;DHT22;50717;53.360;6.290;2023-10-08T07:14:25;13.50;99.90
64396;DHT22;50717;53.360;6.290;2023-10-08T07:16:53;13.50;99.90
64396;DHT22;50717;53.360;6.290;2023-10-08T07:19:21;13.80;99.90
64396;DHT22;50717;53.360;6.290;2023-10-08T07:21:49;13.50;99.90
64396;DHT22;50717;53.360;6.290;2023-10-08T07:24:19;13.40;99.90
64396;DHT22;50717;53.360;6.290;2023-10-08T07:26:47;13.60;99.90
64396;DHT22;50717;53.360;6.290;2023-10-08T07:29:15;13.60;99.90
64396;DHT22;50717;53.360;6.290;2023-10-08T07:31:48;13.80;99.90
64396;DHT22;50717;53.360;6.290;2023-10-08T07:34:19;13.40;99.90
64396;DHT22;50717;53.360;6.290;2023-10-08T07:36:52;13.80;99.90
64396;DHT22;50717;53.360;6.290;2023-10-08T07:39:19;13.60;99.90
64396;DHT22;50717;53.360;6.290;2023-10-08T07:41:59;13.70;99.90
64396;DHT22;50717;53.360;6.290;2023-10-08T07:44:26;13.70;99.90
64396;DHT22;50717;53.360;6.290;2023-10-08T07:46:56;13.70;99.90
64396;DHT22;50717;53.360;6.290;2023-10-08T07:49:22;13.80;99.90
64396;DHT22;50717;53.360;6.290;2023-10-08T07:51:52;14.00;99.90
64396;DHT22;50717;53.360;6.290;2023-10-08T07:54:22;13.80;99.90
64396;DHT22;50717;53.360;6.290;2023-10-08T07:56:53;14.20;99.90
64396;DHT22;50717;53.360;6.290;2023-10-08T07:59:38;14.10;99.90
64396;DHT22;50717;53.360;6.290;2023-10-08T08:02:08;14.20;99.90
64396;DHT22;50717;53.360;6.290;2023-10-08T08:04:38;14.20;99.90
64396;DHT22;50717;53.360;6.290;2023-10-08T08:07:08;14.40;99.90
64396;DHT22;50717;53.360;6.290;2023-10-08T08:09:42;14.20;99.90
64396;DHT22;50717;53.360;6.290;2023-10-08T08:12:13;14.30;99.90
64396;DHT22;50717;53.360;6.290;2023-10-08T08:14:39;14.40;99.90
64396;DHT22;50717;53.360;6.290;2023-10-08T08:17:07;14.40;99.90
64396;DHT22;50717;53.360;6.290;2023-10-08T08:22:05;14.20;99.90
64396;DHT22;50717;53.360;6.290;2023-10-08T08:24:31;14.80;99.90
64396;DHT22;50717;53.360;6.290;2023-10-08T08:27:01;14.50;99.90
64396;DHT22;50717;53.360;6.290;2023-10-08T08:29:34;14.60;99.90
64396;DHT22;50717;53.360;6.290;2023-10-08T08:32:10;14.70;99.90
64396;DHT22;50717;53.360;6.290;2023-10-08T08:34:42;14.70;99.90
64396;DHT22;50717;53.360;6.290;2023-10-08T08:37:10;14.80;99.90
64396;DHT22;50717;53.360;6.290;2023-10-08T08:39:37;15.00;99.90
64396;DHT22;50717;53.360;6.290;2023-10-08T08:42:03;14.90;99.90
64396;DHT22;50717;53.360;6.290;2023-10-08T08:44:35;14.80;99.90
64396;DHT22;50717;53.360;6.290;2023-10-08T08:47:05;15.20;99.90
64396;DHT22;50717;53.360;6.290;2023-10-08T08:49:36;14.80;99.90
64396;DHT22;50717;53.360;6.290;2023-10-08T08:52:05;14.80;99.90
64396;DHT22;50717;53.360;6.290;2023-10-08T08:54:31;14.90;99.90
64396;DHT22;50717;53.360;6.290;2023-10-08T08:56:57;14.90;99.90
64396;DHT22;50717;53.360;6.290;2023-10-08T08:59:25;15.20;99.90
64396;DHT22;50717;53.360;6.290;2023-10-08T09:01:53;14.90;99.90
64396;DHT22;50717;53.360;6.290;2023-10-08T09:04:31;15.10;99.90
64396;DHT22;50717;53.360;6.290;2023-10-08T09:07:01;15.40;99.90
64396;DHT22;50717;53.360;6.290;2023-10-08T09:09:33;15.30;99.90
64396;DHT22;50717;53.360;6.290;2023-10-08T09:12:00;15.00;99.90
64396;DHT22;50717;53.360;6.290;2023-10-08T09:14:27;15.10;99.90
64396;DHT22;50717;53.360;6.290;2023-10-08T09:16:57;15.10;99.90
64396;DHT22;50717;53.360;6.290;2023-10-08T09:19:25;15.30;99.90
64396;DHT22;50717;53.360;6.290;2023-10-08T09:22:09;15.60;99.90
64396;DHT22;50717;53.360;6.290;2023-10-08T09:24:36;15.60;99.90
64396;DHT22;50717;53.360;6.290;2023-10-08T09:27:20;15.60;99.90
64396;DHT22;50717;53.360;6.290;2023-10-08T09:29:47;15.90;99.90
64396;DHT22;50717;53.360;6.290;2023-10-08T09:32:13;16.20;99.90
64396;DHT22;50717;53.360;6.290;2023-10-08T09:34:39;15.70;99.90
64396;DHT22;50717;53.360;6.290;2023-10-08T09:37:05;16.00;99.90
64396;DHT22;50717;53.360;6.290;2023-10-08T09:39:33;16.30;99.90
64396;DHT22;50717;53.360;6.290;2023-10-08T09:42:03;16.40;99.90
64396;DHT22;50717;53.360;6.290;2023-10-08T09:44:32;16.50;99.90
64396;DHT22;50717;53.360;6.290;2023-10-08T09:47:06;16.10;99.90
64396;DHT22;50717;53.360;6.290;2023-10-08T09:50:01;16.30;99.90
64396;DHT22;50717;53.360;6.290;2023-10-08T09:52:34;16.00;99.90
64396;DHT22;50717;53.360;6.290;2023-10-08T09:55:09;15.80;99.90
64396;DHT22;50717;53.360;6.290;2023-10-08T09:57:37;16.40;99.90
64396;DHT22;50717;53.360;6.290;2023-10-08T10:00:07;16.30;99.90
64396;DHT22;50717;53.360;6.290;2023-10-08T10:02:43;16.30;99.90
64396;DHT22;50717;53.360;6.290;2023-10-08T10:05:19;16.00;99.90
64396;DHT22;50717;53.360;6.290;2023-10-08T10:07:48;16.20;99.90
64396;DHT22;50717;53.360;6.290;2023-10-08T10:10:29;16.30;99.90
64396;DHT22;50717;53.360;6.290;2023-10-08T10:13:00;16.40;99.90
64396;DHT22;50717;53.360;6.290;2023-10-08T10:15:28;16.30;99.90
64396;DHT22;50717;53.360;6.290;2023-10-08T10:18:09;16.20;99.90
64396;DHT22;50717;53.360;6.290;2023-10-08T10:21:00;16.70;99.90
64396;DHT22;50717;53.360;6.290;2023-10-08T10:31:41;17.10;99.90
64396;DHT22;50717;53.360;6.290;2023-10-08T10:34:14;16.70;99.90
64396;DHT22;50717;53.360;6.290;2023-10-08T10:36:42;16.80;99.90
64396;DHT22;50717;53.360;6.290;2023-10-08T10:39:12;16.60;99.90
64396;DHT22;50717;53.360;6.290;2023-10-08T10:41:52;16.40;99.90
64396;DHT22;50717;53.360;6.290;2023-10-08T10:44:23;16.50;99.90
64396;DHT22;50717;53.360;6.290;2023-10-08T10:46:49;16.50;99.90
64396;DHT22;50717;53.360;6.290;2023-10-08T10:49:38;16.30;99.90
64396;DHT22;50717;53.360;6.290;2023-10-08T10:52:14;16.90;99.90
64396;DHT22;50717;53.360;6.290;2023-10-08T10:54:55;16.20;99.90
64396;DHT22;50717;53.360;6.290;2023-10-08T10:57:31;16.60;99.90
64396;DHT22;50717;53.360;6.290;2023-10-08T11:00:07;16.40;99.90
64396;DHT22;50717;53.360;6.290;2023-10-08T11:02:52;16.50;99.90
64396;DHT22;50717;53.360;6.290;2023-10-08T11:05:26;16.40;99.90
64396;DHT22;50717;53.360;6.290;2023-10-08T11:07:58;16.40;99.90
64396;DHT22;50717;53.360;6.290;2023-10-08T11:10:36;16.30;99.90
64396;DHT22;50717;53.360;6.290;2023-10-08T11:13:09;16.60;99.90
64396;DHT22;50717;53.360;6.290;2023-10-08T11:15:45;16.50;99.90
64396;DHT22;50717;53.360;6.290;2023-10-08T11:18:23;16.80;99.90
64396;DHT22;50717;53.360;6.290;2023-10-08T11:20:49;17.00;99.90
64396;DHT22;50717;53.360;6.290;2023-10-08T11:23:47;17.20;99.90
64396;DHT22;50717;53.360;6.290;2023-10-08T11:26:19;16.60;99.90
64396;DHT22;50717;53.360;6.290;2023-10-08T11:28:45;17.30;99.90
64396;DHT22;50717;53.360;6.290;2023-10-08T11:31:17;17.10;99.90
64396;DHT22;50717;53.360;6.290;2023-10-08T11:33:47;17.00;99.90
64396;DHT22;50717;53.360;6.290;2023-10-08T11:36:21;17.10;99.90
64396;DHT22;50717;53.360;6.290;2023-10-08T11:39:09;17.10;99.90
64396;DHT22;50717;53.360;6.290;2023-10-08T11:41:36;16.80;99.90
64396;DHT22;50717;53.360;6.290;2023-10-08T11:44:17;17.00;99.90
64396;DHT22;50717;53.360;6.290;2023-10-08T11:46:45;17.10;99.90
64396;DHT22;50717;53.360;6.290;2023-10-08T11:49:12;17.30;99.90
64396;DHT22;50717;53.360;6.290;2023-10-08T11:51:44;17.40;99.90
64396;DHT22;50717;53.360;6.290;2023-10-08T11:54:10;17.30;99.90
64396;DHT22;50717;53.360;6.290;2023-10-08T11:56:39;17.50;99.90
64396;DHT22;50717;53.360;6.290;2023-10-08T11:59:05;17.20;99.90
64396;DHT22;50717;53.360;6.290;2023-10-08T12:01:37;17.60;99.90
64396;DHT22;50717;53.360;6.290;2023-10-08T12:04:08;17.60;99.90
64396;DHT22;50717;53.360;6.290;2023-10-08T12:06:39;17.90;99.90
64396;DHT22;50717;53.360;6.290;2023-10-08T12:09:15;17.70;99.90
64396;DHT22;50717;53.360;6.290;2023-10-08T12:11:41;17.60;99.90
64396;DHT22;50717;53.360;6.290;2023-10-08T12:14:09;17.90;99.90
64396;DHT22;50717;53.360;6.290;2023-10-08T12:16:36;18.00;99.90
64396;DHT22;50717;53.360;6.290;2023-10-08T12:19:02;17.70;99.90
64396;DHT22;50717;53.360;6.290;2023-10-08T12:21:41;17.70;99.90
64396;DHT22;50717;53.360;6.290;2023-10-08T12:24:07;17.40;99.90
64396;DHT22;50717;53.360;6.290;2023-10-08T12:26:38;18.10;99.90
64396;DHT22;50717;53.360;6.290;2023-10-08T12:29:11;17.90;99.90
64396;DHT22;50717;53.360;6.290;2023-10-08T12:31:40;18.30;99.90
64396;DHT22;50717;53.360;6.290;2023-10-08T12:34:05;18.30;99.90
64396;DHT22;50717;53.360;6.290;2023-10-08T12:36:31;18.60;99.90
64396;DHT22;50717;53.360;6.290;2023-10-08T12:39:01;18.60;99.90
64396;DHT22;50717;53.360;6.290;2023-10-08T12:41:34;18.80;99.90
64396;DHT22;50717;53.360;6.290;2023-10-08T12:44:04;18.70;99.90
64396;DHT22;50717;53.360;6.290;2023-10-08T12:46:33;18.20;99.90
64396;DHT22;50717;53.360;6.290;2023-10-08T12:48:59;18.30;99.90
64396;DHT22;50717;53.360;6.290;2023-10-08T12:51:27;18.00;99.90
64396;DHT22;50717;53.360;6.290;2023-10-08T12:53:57;17.90;99.90
64396;DHT22;50717;53.360;6.290;2023-10-08T12:56:32;17.50;99.90
64396;DHT22;50717;53.360;6.290;2023-10-08T12:59:01;17.60;99.90
64396;DHT22;50717;53.360;6.290;2023-10-08T13:01:33;17.50;99.90
64396;DHT22;50717;53.360;6.290;2023-10-08T13:04:01;17.40;99.90
64396;DHT22;50717;53.360;6.290;2023-10-08T13:06:33;17.40;99.90
64396;DHT22;50717;53.360;6.290;2023-10-08T13:09:02;17.60;99.90
64396;DHT22;50717;53.360;6.290;2023-10-08T13:11:34;17.60;99.90
64396;DHT22;50717;53.360;6.290;2023-10-08T13:14:00;17.70;99.90
64396;DHT22;50717;53.360;6.290;2023-10-08T13:16:27;17.60;99.90
64396;DHT22;50717;53.360;6.290;2023-10-08T13:19:00;17.50;99.90
64396;DHT22;50717;53.360;6.290;2023-10-08T13:21:27;17.30;99.90
64396;DHT22;50717;53.360;6.290;2023-10-08T13:23:55;16.90;99.90
64396;DHT22;50717;53.360;6.290;2023-10-08T13:26:26;17.50;99.90
64396;DHT22;50717;53.360;6.290;2023-10-08T13:28:57;17.50;99.90
64396;DHT22;50717;53.360;6.290;2023-10-08T13:31:24;17.60;99.90
64396;DHT22;50717;53.360;6.290;2023-10-08T13:33:50;17.70;99.90
64396;DHT22;50717;53.360;6.290;2023-10-08T13:36:18;17.70;99.90
64396;DHT22;50717;53.360;6.290;2023-10-08T13:38:44;17.70;99.90
64396;DHT22;50717;53.360;6.290;2023-10-08T13:41:13;17.70;99.90
64396;DHT22;50717;53.360;6.290;2023-10-08T13:43:50;17.30;99.90
64396;DHT22;50717;53.360;6.290;2023-10-08T13:46:20;17.30;99.90
64396;DHT22;50717;53.360;6.290;2023-10-08T13:48:49;17.20;99.90
64396;DHT22;50717;53.360;6.290;2023-10-08T13:51:21;17.40;99.90
64396;DHT22;50717;53.360;6.290;2023-10-08T13:53:52;17.20;99.90
64396;DHT22;50717;53.360;6.290;2023-10-08T13:56:19;17.20;99.90
64396;DHT22;50717;53.360;6.290;2023-10-08T13:59:01;17.00;99.90
64396;DHT22;50717;53.360;6.290;2023-10-08T14:01:32;17.50;99.90
64396;DHT22;50717;53.360;6.290;2023-10-08T14:04:01;17.30;99.90
64396;DHT22;50717;53.360;6.290;2023-10-08T14:06:35;17.10;99.90
64396;DHT22;50717;53.360;6.290;2023-10-08T14:09:05;17.00;99.90
64396;DHT22;50717;53.360;6.290;2023-10-08T14:11:48;16.90;99.90
64396;DHT22;50717;53.360;6.290;2023-10-08T14:14:16;17.20;99.90
64396;DHT22;50717;53.360;6.290;2023-10-08T14:16:43;17.00;99.90
64396;DHT22;50717;53.360;6.290;2023-10-08T14:19:10;17.00;99.90
64396;DHT22;50717;53.360;6.290;2023-10-08T14:21:38;16.90;99.90
64396;DHT22;50717;53.360;6.290;2023-10-08T14:24:15;16.90;99.90
64396;DHT22;50717;53.360;6.290;2023-10-08T14:26:41;16.80;99.90
64396;DHT22;50717;53.360;6.290;2023-10-08T14:29:08;17.10;99.90
64396;DHT22;50717;53.360;6.290;2023-10-08T14:31:40;16.90;99.90
64396;DHT22;50717;53.360;6.290;2023-10-08T14:34:07;17.10;99.90
64396;DHT22;50717;53.360;6.290;2023-10-08T14:36:44;17.20;99.90
64396;DHT22;50717;53.360;6.290;2023-10-08T14:39:28;17.10;99.90
64396;DHT22;50717;53.360;6.290;2023-10-08T14:42:12;17.30;99.90
64396;DHT22;50717;53.360;6.290;2023-10-08T14:44:57;17.40;99.90
64396;DHT22;50717;53.360;6.290;2023-10-08T14:47:22;16.90;99.90
64396;DHT22;50717;53.360;6.290;2023-10-08T14:49:48;16.80;99.90
64396;DHT22;50717;53.360;6.290;2023-10-08T14:52:14;16.80;99.90
64396;DHT22;50717;53.360;6.290;2023-10-08T14:54:39;16.80;99.90
64396;DHT22;50717;53.360;6.290;2023-10-08T14:57:07;16.90;99.90
64396;DHT22;50717;53.360;6.290;2023-10-08T14:59:33;16.70;99.90
64396;DHT22;50717;53.360;6.290;2023-10-08T15:01:59;17.00;99.90
64396;DHT22;50717;53.360;6.290;2023-10-08T15:04:25;16.40;99.90
64396;DHT22;50717;53.360;6.290;2023-10-08T15:06:56;16.20;99.90
64396;DHT22;50717;53.360;6.290;2023-10-08T15:09:23;16.60;99.90
64396;DHT22;50717;53.360;6.290;2023-10-08T15:11:52;16.50;99.90
64396;DHT22;50717;53.360;6.290;2023-10-08T15:14:21;16.90;99.90
64396;DHT22;50717;53.360;6.290;2023-10-08T15:16:50;16.60;99.90
64396;DHT22;50717;53.360;6.290;2023-10-08T15:19:22;16.40;99.90
64396;DHT22;50717;53.360;6.290;2023-10-08T15:21:48;16.40;99.90
64396;DHT22;50717;53.360;6.290;2023-10-08T15:24:19;16.20;99.90
64396;DHT22;50717;53.360;6.290;2023-10-08T15:26:50;16.40;99.90
64396;DHT22;50717;53.360;6.290;2023-10-08T15:29:18;16.30;99.90
64396;DHT22;50717;53.360;6.290;2023-10-08T15:31:48;16.50;99.90
64396;DHT22;50717;53.360;6.290;2023-10-08T15:34:16;16.50;99.90
64396;DHT22;50717;53.360;6.290;2023-10-08T15:36:42;16.10;99.90
64396;DHT22;50717;53.360;6.290;2023-10-08T15:39:08;16.40;99.90
64396;DHT22;50717;53.360;6.290;2023-10-08T15:41:38;16.40;99.90
64396;DHT22;50717;53.360;6.290;2023-10-08T15:44:05;16.10;99.90
64396;DHT22;50717;53.360;6.290;2023-10-08T15:46:32;16.30;99.90
64396;DHT22;50717;53.360;6.290;2023-10-08T15:49:01;15.90;99.90
64396;DHT22;50717;53.360;6.290;2023-10-08T15:51:29;16.10;99.90
64396;DHT22;50717;53.360;6.290;2023-10-08T15:53:55;16.10;99.90
64396;DHT22;50717;53.360;6.290;2023-10-08T15:56:20;15.90;99.90
64396;DHT22;50717;53.360;6.290;2023-10-08T15:58:46;15.80;99.90
64396;DHT22;50717;53.360;6.290;2023-10-08T16:01:12;16.10;99.90
64396;DHT22;50717;53.360;6.290;2023-10-08T16:03:38;16.00;99.90
64396;DHT22;50717;53.360;6.290;2023-10-08T16:06:04;15.90;99.90